Arcadia, Texas
Current Conditions -  °F | °C
As of 9:53 PM on Friday 24 Oct 2014 (Local Time) from KLVJ Reporting Station
Clear Clear  
Wind Chill: 65°   Ceiling: Unl
Heat Index: 65°   Visibility: 10mi
Dew Point: 58°   Wind: 0mph
Humidity: 78%   Direction: NA
Pressure: 30.15"   Gusts: NA
Location:  29.3723°N, 95.1328°W
Report Text: KLVJ 250253Z AUTO 00000KT 10SM CLR 18/14 A3015 RMK AO2 SLP207 T01830144 51015
Loading
Personal Weather Stations






























Interactive Weather Map New forecast layout! Learn more

10-Day Weather Forecast

Advertisements
Track Severe Weather on mobile